Time;durP1;ratioP1;P1;durP2;ratioP2;P2;SDS_P1;SDS_P2;PMS_P1;PMS_P2;Temp;Humidity;BMP_temperature;BMP_pressure;BME280_temperature;BME280_humidity;BME280_pressure;Samples;Min_cycle;Max_cycle;Signal;HPM_P1;HPM_P2
2021/10/30 00:02:41;;;;;;;47.53;13.80;;;;;;;;;;5044787;28;20219;-72
2021/10/30 00:05:46;;;;;;;28.47;12.60;;;;;;;;;;5054477;28;20214;-72
2021/10/30 00:08:50;;;;;;;56.50;14.27;;;;;;;;;;5055114;28;20188;-72
2021/10/30 00:11:54;;;;;;;18.27;13.53;;;;;;;;;;5054686;28;20609;-72
2021/10/30 00:14:58;;;;;;;23.33;14.10;;;;;;;;;;5042019;28;20207;-72
2021/10/30 00:18:03;;;;;;;52.70;13.37;;;;;;;;;;5054059;28;20679;-72
2021/10/30 00:21:07;;;;;;;28.60;13.63;;;;;;;;;;5054525;28;20227;-72
2021/10/30 00:24:13;;;;;;;119.20;12.80;;;;;;;;;;5031394;28;20181;-72
2021/10/30 00:27:17;;;;;;;14.07;10.83;;;;;;;;;;5036604;28;20196;-72
2021/10/30 00:30:21;;;;;;;14.47;11.13;;;;;;;;;;5047014;28;20192;-72
2021/10/30 00:33:25;;;;;;;42.47;12.10;;;;;;;;;;5065715;28;20177;-72
2021/10/30 00:36:29;;;;;;;15.27;11.67;;;;;;;;;;5054870;28;20673;-72
2021/10/30 00:39:33;;;;;;;40.20;11.57;;;;;;;;;;5034742;28;20192;-72
2021/10/30 00:42:41;;;;;;;43.03;10.77;;;;;;;;;;5034671;28;20289;-72
2021/10/30 00:45:46;;;;;;;21.20;10.20;;;;;;;;;;5034515;28;20185;-72
2021/10/30 00:48:50;;;;;;;25.37;11.20;;;;;;;;;;5022475;28;20189;-72
2021/10/30 00:51:57;;;;;;;50.20;11.50;;;;;;;;;;5034601;28;20220;-72
2021/10/30 00:55:03;;;;;;;43.50;11.30;;;;;;;;;;5045395;28;20192;-72
2021/10/30 00:58:08;;;;;;;16.33;10.27;;;;;;;;;;5053872;28;20207;-72
2021/10/30 01:01:12;;;;;;;51.80;12.30;;;;;;;;;;5054123;28;20292;-72
2021/10/30 01:04:17;;;;;;;12.27;10.10;;;;;;;;;;5052840;28;20244;-72
2021/10/30 01:07:22;;;;;;;36.17;10.87;;;;;;;;;;5053507;28;20204;-72
2021/10/30 01:10:26;;;;;;;23.67;10.43;;;;;;;;;;5052863;28;20203;-72
2021/10/30 01:13:31;;;;;;;16.50;10.10;;;;;;;;;;5053592;28;20677;-72
2021/10/30 01:16:35;;;;;;;42.67;11.20;;;;;;;;;;5034372;28;20192;-72
2021/10/30 01:19:41;;;;;;;15.33;11.43;;;;;;;;;;5025294;28;20666;-72
2021/10/30 01:22:45;;;;;;;30.30;11.27;;;;;;;;;;5046301;28;20228;-72
2021/10/30 01:25:56;;;;;;;20.20;10.57;;;;;;;;;;5049452;28;20672;-72
2021/10/30 01:29:02;;;;;;;29.30;10.17;;;;;;;;;;5033666;28;20196;-72
2021/10/30 01:32:06;;;;;;;34.37;10.83;;;;;;;;;;5033633;28;20745;-72
2021/10/30 01:35:11;;;;;;;31.97;10.33;;;;;;;;;;5033843;28;20192;-72
2021/10/30 01:38:16;;;;;;;76.23;11.37;;;;;;;;;;5040174;28;20200;-72
2021/10/30 01:41:24;;;;;;;28.10;10.80;;;;;;;;;;5053695;28;20246;-72
2021/10/30 01:44:28;;;;;;;13.37;9.80;;;;;;;;;;5053268;28;20227;-72
2021/10/30 01:47:33;;;;;;;26.03;10.43;;;;;;;;;;5053286;28;20654;-72
2021/10/30 01:50:41;;;;;;;17.30;12.30;;;;;;;;;;5053165;28;20232;-72
2021/10/30 01:53:46;;;;;;;59.90;13.20;;;;;;;;;;5053164;28;20205;-72
2021/10/30 01:56:50;;;;;;;98.33;13.70;;;;;;;;;;5052934;28;20192;-72
2021/10/30 01:59:54;;;;;;;19.10;11.50;;;;;;;;;;5049845;28;20188;-72
2021/10/30 02:02:59;;;;;;;17.53;13.07;;;;;;;;;;5050725;28;20222;-72
2021/10/30 02:06:05;;;;;;;34.73;11.23;;;;;;;;;;5053042;28;20278;-72
2021/10/30 02:09:09;;;;;;;38.37;11.37;;;;;;;;;;5052940;28;20205;-72
2021/10/30 02:12:13;;;;;;;33.37;11.97;;;;;;;;;;5051866;28;20236;-72
2021/10/30 02:15:18;;;;;;;16.17;12.23;;;;;;;;;;5052695;28;20223;-72
2021/10/30 02:18:22;;;;;;;20.33;11.60;;;;;;;;;;5058131;28;20210;-72
2021/10/30 02:21:26;;;;;;;45.00;11.37;;;;;;;;;;5059465;28;20698;-72
2021/10/30 02:24:32;;;;;;;14.43;10.80;;;;;;;;;;5047134;28;20597;-72
2021/10/30 02:27:36;;;;;;;50.83;10.33;;;;;;;;;;5059131;28;20205;-72
2021/10/30 02:30:43;;;;;;;27.57;12.00;;;;;;;;;;5059015;28;20228;-72
2021/10/30 02:33:47;;;;;;;46.07;11.10;;;;;;;;;;5044491;28;20196;-72
2021/10/30 02:36:51;;;;;;;66.57;12.73;;;;;;;;;;5046834;28;20253;-72
2021/10/30 02:39:55;;;;;;;94.33;12.47;;;;;;;;;;5059369;28;20327;-72
2021/10/30 02:42:59;;;;;;;96.37;12.43;;;;;;;;;;5039009;28;20219;-72
2021/10/30 02:46:03;;;;;;;59.20;11.70;;;;;;;;;;5056497;28;20197;-72
2021/10/30 02:49:08;;;;;;;60.37;11.63;;;;;;;;;;5059318;28;20184;-72
2021/10/30 02:52:12;;;;;;;16.33;11.63;;;;;;;;;;5027290;28;20231;-72
2021/10/30 02:55:17;;;;;;;16.67;11.33;;;;;;;;;;5039582;28;20188;-72
2021/10/30 02:58:21;;;;;;;84.87;13.37;;;;;;;;;;5027284;28;20193;-72
2021/10/30 03:01:25;;;;;;;17.03;11.57;;;;;;;;;;5039115;28;20220;-72
2021/10/30 03:04:30;;;;;;;20.97;11.10;;;;;;;;;;5039343;28;20224;-72
2021/10/30 03:07:35;;;;;;;23.90;11.77;;;;;;;;;;5026983;28;20212;-72
2021/10/30 03:10:40;;;;;;;22.43;12.07;;;;;;;;;;5039313;28;20634;-72
2021/10/30 03:13:45;;;;;;;29.90;13.20;;;;;;;;;;5030272;28;20984;-72
2021/10/30 03:16:49;;;;;;;25.53;12.77;;;;;;;;;;5046313;28;20569;-72
2021/10/30 03:19:53;;;;;;;18.30;12.37;;;;;;;;;;5058561;28;21175;-72
2021/10/30 03:22:58;;;;;;;37.27;14.47;;;;;;;;;;5059478;28;21091;-72
2021/10/30 03:26:02;;;;;;;35.53;13.87;;;;;;;;;;5058918;28;20582;-72
2021/10/30 03:29:07;;;;;;;38.43;13.50;;;;;;;;;;5056813;28;20199;-72
2021/10/30 03:32:10;;;;;;;28.73;14.07;;;;;;;;;;5043041;28;20645;-72
2021/10/30 03:35:15;;;;;;;25.53;14.70;;;;;;;;;;5055914;28;20188;-72
2021/10/30 03:38:19;;;;;;;23.20;13.90;;;;;;;;;;5043069;28;20195;-72
2021/10/30 03:41:23;;;;;;;23.23;14.73;;;;;;;;;;5043027;28;21241;-73
2021/10/30 03:44:27;;;;;;;56.03;14.80;;;;;;;;;;5055633;28;20637;-72
2021/10/30 03:47:31;;;;;;;34.80;13.60;;;;;;;;;;5054330;28;20199;-72
2021/10/30 03:50:37;;;;;;;34.20;14.43;;;;;;;;;;5042412;28;20590;-72
2021/10/30 03:53:41;;;;;;;25.33;15.03;;;;;;;;;;5043291;28;20578;-72
2021/10/30 03:56:45;;;;;;;34.53;15.40;;;;;;;;;;5055018;28;20593;-73
2021/10/30 03:59:49;;;;;;;19.33;13.20;;;;;;;;;;5055546;28;20212;-73
2021/10/30 04:02:53;;;;;;;59.77;18.33;;;;;;;;;;5054993;28;20210;-73
2021/10/30 04:05:57;;;;;;;34.10;14.73;;;;;;;;;;5043545;28;20204;-71
2021/10/30 04:09:02;;;;;;;21.67;14.73;;;;;;;;;;5042811;28;20184;-72
2021/10/30 04:12:06;;;;;;;30.77;16.70;;;;;;;;;;5054415;28;20657;-73
2021/10/30 04:15:10;;;;;;;21.93;14.83;;;;;;;;;;5042475;28;20213;-72
2021/10/30 04:18:15;;;;;;;24.17;16.73;;;;;;;;;;5054353;28;20964;-72
2021/10/30 04:21:19;;;;;;;38.57;15.63;;;;;;;;;;5054736;28;20586;-72
2021/10/30 04:24:23;;;;;;;44.80;14.97;;;;;;;;;;5054416;28;20227;-72
2021/10/30 04:27:27;;;;;;;29.30;15.07;;;;;;;;;;5054286;28;20192;-72
2021/10/30 04:30:31;;;;;;;32.43;16.33;;;;;;;;;;5054746;28;20220;-72
2021/10/30 04:33:41;;;;;;;41.57;16.27;;;;;;;;;;5053597;28;20682;-72
2021/10/30 04:36:48;;;;;;;29.03;15.90;;;;;;;;;;5054364;28;20209;-72
2021/10/30 04:39:53;;;;;;;32.07;14.90;;;;;;;;;;5034443;28;20652;-72
2021/10/30 04:42:57;;;;;;;30.03;14.83;;;;;;;;;;5034579;28;20688;-72
2021/10/30 04:46:02;;;;;;;24.77;16.70;;;;;;;;;;5051559;28;20203;-72
2021/10/30 04:49:07;;;;;;;24.60;14.77;;;;;;;;;;5011487;28;20196;-72
2021/10/30 04:52:12;;;;;;;49.70;15.27;;;;;;;;;;5048078;28;20231;-72
2021/10/30 04:55:16;;;;;;;42.70;17.20;;;;;;;;;;5054334;28;20205;-72
2021/10/30 04:58:20;;;;;;;57.40;16.50;;;;;;;;;;5053321;28;20208;-72
2021/10/30 05:01:25;;;;;;;32.43;15.97;;;;;;;;;;5054285;28;20219;-72
2021/10/30 05:04:30;;;;;;;46.27;14.50;;;;;;;;;;5039459;28;20710;-72
2021/10/30 05:07:34;;;;;;;34.53;14.37;;;;;;;;;;5034085;28;20551;-72
2021/10/30 05:10:38;;;;;;;22.30;14.80;;;;;;;;;;5033936;28;20245;-72
2021/10/30 05:13:42;;;;;;;60.67;15.70;;;;;;;;;;5034279;28;20610;-73
2021/10/30 05:16:48;;;;;;;37.63;15.67;;;;;;;;;;5039254;28;20195;-72
2021/10/30 05:19:52;;;;;;;33.83;15.60;;;;;;;;;;5041295;28;20199;-72
2021/10/30 05:22:56;;;;;;;72.47;14.87;;;;;;;;;;5053585;28;20594;-72
2021/10/30 05:26:00;;;;;;;22.13;13.53;;;;;;;;;;5029739;28;20207;-72
2021/10/30 05:29:04;;;;;;;38.13;15.50;;;;;;;;;;5041342;28;20597;-72
2021/10/30 05:32:08;;;;;;;27.83;18.23;;;;;;;;;;5053118;28;20654;-72
2021/10/30 05:35:24;;;;;;;26.20;16.03;;;;;;;;;;5052251;28;20592;-72
2021/10/30 05:38:50;;;;;;;48.97;14.83;;;;;;;;;;5052829;28;20603;-72
2021/10/30 05:41:54;;;;;;;21.20;12.63;;;;;;;;;;5053192;28;20292;-72
2021/10/30 05:44:58;;;;;;;43.50;13.83;;;;;;;;;;5041271;28;20665;-72
2021/10/30 05:48:03;;;;;;;35.83;14.53;;;;;;;;;;5053058;28;20196;-72
2021/10/30 05:51:08;;;;;;;25.10;12.97;;;;;;;;;;5040640;28;20220;-72
2021/10/30 05:54:12;;;;;;;19.93;12.70;;;;;;;;;;5051767;28;20590;-72
2021/10/30 05:57:16;;;;;;;21.37;13.43;;;;;;;;;;5052524;28;20599;-72
2021/10/30 06:00:20;;;;;;;25.00;12.67;;;;;;;;;;5040383;28;20196;-72
2021/10/30 06:03:25;;;;;;;35.60;12.93;;;;;;;;;;5052721;28;20593;-72
2021/10/30 06:06:29;;;;;;;17.50;12.30;;;;;;;;;;5040259;28;20590;-73
2021/10/30 06:09:34;;;;;;;28.07;13.63;;;;;;;;;;5051879;28;20597;-72
2021/10/30 06:12:39;;;;;;;24.23;13.80;;;;;;;;;;5037417;28;20654;-72
2021/10/30 06:15:44;;;;;;;29.23;12.83;;;;;;;;;;5040422;28;20593;-72
2021/10/30 06:18:49;;;;;;;31.10;14.63;;;;;;;;;;5052680;28;20597;-73
2021/10/30 06:21:54;;;;;;;25.50;13.63;;;;;;;;;;5052890;28;20629;-72
2021/10/30 06:24:58;;;;;;;29.90;11.73;;;;;;;;;;5052383;28;20677;-72
2021/10/30 06:28:02;;;;;;;27.33;11.60;;;;;;;;;;5053317;28;20620;-72
2021/10/30 06:31:06;;;;;;;22.47;11.50;;;;;;;;;;5051604;28;20685;-72
2021/10/30 06:34:10;;;;;;;24.43;12.23;;;;;;;;;;5052998;28;20579;-72
2021/10/30 06:37:14;;;;;;;21.57;12.43;;;;;;;;;;5053012;28;20548;-72
2021/10/30 06:40:21;;;;;;;22.60;12.97;;;;;;;;;;5051313;28;20953;-72
2021/10/30 06:43:25;;;;;;;23.10;12.90;;;;;;;;;;5040622;28;20594;-72
2021/10/30 06:46:29;;;;;;;21.53;12.90;;;;;;;;;;5052761;28;20539;-72
2021/10/30 06:49:34;;;;;;;21.57;13.57;;;;;;;;;;5028898;28;20673;-72
2021/10/30 06:52:38;;;;;;;17.10;12.23;;;;;;;;;;5053058;28;21197;-72
2021/10/30 06:55:43;;;;;;;19.50;12.67;;;;;;;;;;5039935;28;20566;-72
2021/10/30 06:58:47;;;;;;;19.27;13.43;;;;;;;;;;5021429;28;21223;-72
2021/10/30 07:01:51;;;;;;;19.10;12.63;;;;;;;;;;5032786;28;21010;-72
2021/10/30 07:04:56;;;;;;;18.80;13.00;;;;;;;;;;5022007;28;20619;-72
2021/10/30 07:08:00;;;;;;;17.73;12.00;;;;;;;;;;5005043;28;20563;-72
2021/10/30 07:11:04;;;;;;;16.63;12.27;;;;;;;;;;5029075;28;20654;-72
2021/10/30 07:14:08;;;;;;;24.13;12.73;;;;;;;;;;5016766;28;21204;-72
2021/10/30 07:17:13;;;;;;;17.00;12.77;;;;;;;;;;5029860;28;21163;-72
2021/10/30 07:20:17;;;;;;;17.13;12.40;;;;;;;;;;5023458;28;20591;-72
2021/10/30 07:23:21;;;;;;;19.97;12.37;;;;;;;;;;5023658;28;20967;-74
2021/10/30 07:26:25;;;;;;;14.90;11.57;;;;;;;;;;5023644;28;20595;-74
2021/10/30 07:29:29;;;;;;;17.57;11.87;;;;;;;;;;5035450;28;20610;-74
2021/10/30 07:32:33;;;;;;;16.60;12.33;;;;;;;;;;5028684;28;21267;-74
2021/10/30 07:35:37;;;;;;;16.73;12.00;;;;;;;;;;5036056;28;20609;-74
2021/10/30 07:38:41;;;;;;;17.80;12.40;;;;;;;;;;5035392;28;20612;-74
2021/10/30 07:41:46;;;;;;;20.50;12.87;;;;;;;;;;5033738;28;20231;-74
2021/10/30 07:44:52;;;;;;;13.43;10.30;;;;;;;;;;5035803;28;21010;-74
2021/10/30 07:47:57;;;;;;;12.50;9.67;;;;;;;;;;5035771;28;20648;-74
2021/10/30 07:51:01;;;;;;;11.70;9.30;;;;;;;;;;5022638;28;20224;-74
2021/10/30 07:54:05;;;;;;;11.70;9.50;;;;;;;;;;5034800;28;20915;-74
2021/10/30 07:57:10;;;;;;;12.13;9.53;;;;;;;;;;5034805;28;20181;-74
2021/10/30 08:00:14;;;;;;;12.27;9.43;;;;;;;;;;5023237;28;20197;-74
2021/10/30 08:03:18;;;;;;;12.73;9.93;;;;;;;;;;5003940;28;20193;-74
2021/10/30 08:06:22;;;;;;;12.93;9.77;;;;;;;;;;5013467;28;20212;-74
2021/10/30 08:09:27;;;;;;;12.50;9.73;;;;;;;;;;5011675;28;20537;-74
2021/10/30 08:12:31;;;;;;;12.17;9.73;;;;;;;;;;5022918;28;20224;-74
2021/10/30 08:15:35;;;;;;;13.77;10.27;;;;;;;;;;5033842;28;20529;-74
2021/10/30 08:18:39;;;;;;;14.00;11.13;;;;;;;;;;5034628;28;20209;-74
2021/10/30 08:21:43;;;;;;;13.17;11.03;;;;;;;;;;5034643;28;20234;-74
2021/10/30 08:24:47;;;;;;;13.43;10.70;;;;;;;;;;5002844;28;20232;-74
2021/10/30 08:27:53;;;;;;;13.47;10.83;;;;;;;;;;5033725;28;20204;-74
2021/10/30 08:30:57;;;;;;;16.87;12.77;;;;;;;;;;5034763;28;20228;-74
2021/10/30 08:34:02;;;;;;;14.23;11.40;;;;;;;;;;5034714;28;20209;-74
2021/10/30 08:37:06;;;;;;;17.57;13.20;;;;;;;;;;5022570;28;20190;-74
2021/10/30 08:40:14;;;;;;;16.00;12.63;;;;;;;;;;5034749;28;20215;-74
2021/10/30 08:43:20;;;;;;;17.80;12.80;;;;;;;;;;5023072;28;20200;-74
2021/10/30 08:46:24;;;;;;;17.00;12.53;;;;;;;;;;5031384;28;20220;-74
2021/10/30 08:49:30;;;;;;;22.03;14.87;;;;;;;;;;5014710;28;20189;-74
2021/10/30 08:52:35;;;;;;;23.50;16.70;;;;;;;;;;5014431;28;20588;-74
2021/10/30 08:55:38;;;;;;;20.80;16.33;;;;;;;;;;5034456;28;20210;-74
2021/10/30 08:58:42;;;;;;;21.90;15.23;;;;;;;;;;5022040;28;20209;-74
2021/10/30 09:01:50;;;;;;;12.30;10.33;;;;;;;;;;5034131;28;20232;-74
2021/10/30 09:05:19;;;;;;;12.03;10.13;;;;;;;;;;5033387;28;20212;-73
2021/10/30 09:08:26;;;;;;;12.43;10.17;;;;;;;;;;5033264;28;20209;-74
2021/10/30 09:11:30;;;;;;;11.73;9.70;;;;;;;;;;5033855;28;20224;-75
2021/10/30 09:14:43;;;;;;;12.33;10.63;;;;;;;;;;5033845;28;20208;-74
2021/10/30 09:17:49;;;;;;;13.73;9.83;;;;;;;;;;5015081;28;20652;-74
2021/10/30 09:20:54;;;;;;;11.70;9.50;;;;;;;;;;5021771;28;20216;-74
2021/10/30 09:23:58;;;;;;;12.37;9.77;;;;;;;;;;5033536;28;20192;-74
2021/10/30 09:27:03;;;;;;;10.27;9.17;;;;;;;;;;5033652;28;20181;-74
2021/10/30 09:30:07;;;;;;;11.13;9.63;;;;;;;;;;5033436;28;20201;-74
2021/10/30 09:33:14;;;;;;;12.33;9.70;;;;;;;;;;5029312;28;20197;-74
2021/10/30 09:36:19;;;;;;;11.33;9.63;;;;;;;;;;5021777;28;20184;-74
2021/10/30 09:39:23;;;;;;;10.80;9.13;;;;;;;;;;5033780;28;20204;-75
2021/10/30 09:42:28;;;;;;;10.87;9.23;;;;;;;;;;5002321;28;20225;-74
2021/10/30 09:45:36;;;;;;;10.87;9.57;;;;;;;;;;5018520;28;20216;-74
2021/10/30 09:48:41;;;;;;;11.50;9.60;;;;;;;;;;5020900;28;20197;-74
2021/10/30 09:51:53;;;;;;;11.70;9.40;;;;;;;;;;5032266;28;20224;-74
2021/10/30 09:54:59;;;;;;;11.23;9.07;;;;;;;;;;5009808;28;20204;-74
2021/10/30 09:58:05;;;;;;;12.57;9.67;;;;;;;;;;5021364;28;20185;-74
2021/10/30 10:01:12;;;;;;;10.47;9.20;;;;;;;;;;4986167;28;20224;-74
2021/10/30 10:04:20;;;;;;;12.20;8.87;;;;;;;;;;5033125;28;20197;-74
2021/10/30 10:07:26;;;;;;;10.57;8.97;;;;;;;;;;5033037;28;20209;-74
2021/10/30 10:10:31;;;;;;;10.90;8.70;;;;;;;;;;5032639;28;20204;-74
2021/10/30 10:13:37;;;;;;;11.33;8.37;;;;;;;;;;5033180;28;20224;-74
2021/10/30 10:16:48;;;;;;;9.87;8.83;;;;;;;;;;5010227;23;20604;-74
2021/10/30 10:19:53;;;;;;;10.03;8.97;;;;;;;;;;5007141;28;20668;-75
2021/10/30 10:22:57;;;;;;;11.23;9.03;;;;;;;;;;4993944;28;20189;-75
2021/10/30 10:26:01;;;;;;;9.57;8.03;;;;;;;;;;4977927;28;20226;-75
2021/10/30 10:29:05;;;;;;;10.20;8.90;;;;;;;;;;4951024;29;20191;-74
2021/10/30 10:32:20;;;;;;;9.57;8.57;;;;;;;;;;4951297;28;20602;-74
2021/10/30 10:35:24;;;;;;;9.90;8.90;;;;;;;;;;4970313;28;20658;-74
2021/10/30 10:38:56;;;;;;;9.73;8.57;;;;;;;;;;4971311;28;20182;-74
2021/10/30 10:42:03;;;;;;;9.57;8.43;;;;;;;;;;4974870;28;20214;-74
2021/10/30 10:45:15;;;;;;;8.63;7.73;;;;;;;;;;4996775;28;20198;-74
2021/10/30 10:48:22;;;;;;;9.90;8.60;;;;;;;;;;4993361;28;20182;-75
2021/10/30 10:51:27;;;;;;;9.57;8.67;;;;;;;;;;4966605;28;20223;-75
2021/10/30 10:55:02;;;;;;;10.30;8.57;;;;;;;;;;4955027;29;20203;-74
2021/10/30 10:58:08;;;;;;;10.50;8.27;;;;;;;;;;4944003;29;20199;-75
2021/10/30 11:01:14;;;;;;;9.50;8.60;;;;;;;;;;4975130;28;20233;-75
2021/10/30 11:04:18;;;;;;;11.57;8.70;;;;;;;;;;4985460;28;20187;-75
2021/10/30 11:07:22;;;;;;;11.47;9.07;;;;;;;;;;4991910;28;20399;-75
2021/10/30 11:10:32;;;;;;;12.10;9.97;;;;;;;;;;4979950;28;20205;-75
2021/10/30 11:13:36;;;;;;;10.23;9.13;;;;;;;;;;4962608;28;20187;-75
2021/10/30 11:16:46;;;;;;;11.07;9.23;;;;;;;;;;4973714;28;20206;-74
2021/10/30 11:19:52;;;;;;;10.03;8.70;;;;;;;;;;4973413;28;20204;-75
2021/10/30 11:23:00;;;;;;;9.90;8.90;;;;;;;;;;4973595;28;20609;-75
2021/10/30 11:26:08;;;;;;;9.40;8.40;;;;;;;;;;4988147;28;20558;-75
2021/10/30 11:29:13;;;;;;;10.13;8.80;;;;;;;;;;4981466;28;20199;-75
2021/10/30 11:32:22;;;;;;;9.60;8.43;;;;;;;;;;4992713;28;20241;-75
2021/10/30 11:35:26;;;;;;;10.97;8.80;;;;;;;;;;4992991;28;20194;-75
2021/10/30 11:38:38;;;;;;;9.20;8.20;;;;;;;;;;4990001;28;20213;-76
2021/10/30 11:41:44;;;;;;;10.50;9.17;;;;;;;;;;4992739;28;20214;-75
2021/10/30 11:44:51;;;;;;;10.33;8.37;;;;;;;;;;4981798;28;20193;-75
2021/10/30 11:47:55;;;;;;;9.73;8.73;;;;;;;;;;4989259;28;20195;-75
2021/10/30 11:51:00;;;;;;;9.90;8.83;;;;;;;;;;4971323;28;20218;-75
2021/10/30 11:54:06;;;;;;;13.27;9.23;;;;;;;;;;4973318;28;20191;-74
2021/10/30 11:57:11;;;;;;;10.77;9.33;;;;;;;;;;4960132;28;20197;-75
2021/10/30 12:00:15;;;;;;;10.43;9.23;;;;;;;;;;4973810;28;20191;-74
2021/10/30 12:03:31;;;;;;;9.27;8.27;;;;;;;;;;4973943;28;20211;-74
2021/10/30 12:06:38;;;;;;;9.67;8.67;;;;;;;;;;4983156;28;20218;-75
2021/10/30 12:09:45;;;;;;;9.40;8.07;;;;;;;;;;4978936;28;20194;-75
2021/10/30 12:12:50;;;;;;;8.90;8.00;;;;;;;;;;4989281;28;20688;-74
2021/10/30 12:15:55;;;;;;;10.30;9.00;;;;;;;;;;4993682;28;20198;-74
2021/10/30 12:19:02;;;;;;;9.27;8.33;;;;;;;;;;4986280;28;20195;-75
2021/10/30 12:22:08;;;;;;;9.33;8.43;;;;;;;;;;4974344;28;20226;-75
2021/10/30 12:25:16;;;;;;;10.20;8.70;;;;;;;;;;4984965;28;20523;-75
2021/10/30 12:28:32;;;;;;;10.43;8.73;;;;;;;;;;4967628;28;20196;-75
2021/10/30 12:31:37;;;;;;;10.13;8.37;;;;;;;;;;4992338;28;20233;-74
2021/10/30 12:34:54;;;;;;;9.37;8.37;;;;;;;;;;4994456;28;20198;-75
2021/10/30 12:38:14;;;;;;;10.07;8.67;;;;;;;;;;4982847;28;20650;-74
2021/10/30 12:41:20;;;;;;;10.10;9.00;;;;;;;;;;4986395;28;20248;-75
2021/10/30 12:44:28;;;;;;;10.80;8.67;;;;;;;;;;4976069;28;20195;-75
2021/10/30 12:47:33;;;;;;;8.87;7.97;;;;;;;;;;4975983;28;20218;-75
2021/10/30 12:50:37;;;;;;;14.27;8.77;;;;;;;;;;4976055;28;20670;-74
2021/10/30 12:53:42;;;;;;;9.43;8.43;;;;;;;;;;4976105;28;20198;-75
2021/10/30 12:56:46;;;;;;;9.97;7.43;;;;;;;;;;4986191;28;20175;-75
2021/10/30 13:00:00;;;;;;;9.53;8.00;;;;;;;;;;4963565;28;20191;-75
2021/10/30 13:03:14;;;;;;;11.37;8.47;;;;;;;;;;4975388;28;20191;-75
2021/10/30 13:06:20;;;;;;;10.30;8.27;;;;;;;;;;4974753;28;20215;-75
2021/10/30 13:09:25;;;;;;;11.97;8.93;;;;;;;;;;4985901;28;20190;-75
2021/10/30 13:12:30;;;;;;;10.20;7.77;;;;;;;;;;4974473;28;20214;-75
2021/10/30 13:15:34;;;;;;;9.73;8.73;;;;;;;;;;4974486;28;20225;-75
2021/10/30 13:18:39;;;;;;;11.57;9.23;;;;;;;;;;4974718;28;20179;-75
2021/10/30 13:21:43;;;;;;;10.80;9.00;;;;;;;;;;4974549;28;20231;-75
2021/10/30 13:24:47;;;;;;;9.87;8.87;;;;;;;;;;4975292;28;20187;-75
2021/10/30 13:27:51;;;;;;;10.00;8.63;;;;;;;;;;4975225;28;20211;-75
2021/10/30 13:30:55;;;;;;;13.33;9.03;;;;;;;;;;4975180;28;20222;-75
2021/10/30 13:34:00;;;;;;;11.50;8.40;;;;;;;;;;4985282;28;20661;-75
2021/10/30 13:37:04;;;;;;;12.83;8.93;;;;;;;;;;4975185;28;20244;-75
2021/10/30 13:40:09;;;;;;;9.73;8.43;;;;;;;;;;4985130;28;20187;-75
2021/10/30 13:43:13;;;;;;;10.23;9.03;;;;;;;;;;4975028;28;20210;-75
2021/10/30 13:46:19;;;;;;;10.67;9.57;;;;;;;;;;4975210;28;20697;-75
2021/10/30 13:49:24;;;;;;;12.97;10.10;;;;;;;;;;4974661;28;20211;-75
2021/10/30 13:52:27;;;;;;;15.70;10.37;;;;;;;;;;4974286;28;20226;-76
2021/10/30 13:55:32;;;;;;;11.60;10.10;;;;;;;;;;4974635;28;20198;-75
2021/10/30 13:58:36;;;;;;;13.23;10.90;;;;;;;;;;4984877;28;20187;-75
2021/10/30 14:01:41;;;;;;;11.20;10.00;;;;;;;;;;4973816;28;20229;-74
2021/10/30 14:04:45;;;;;;;11.50;10.27;;;;;;;;;;4973637;28;20561;-75
2021/10/30 14:07:48;;;;;;;12.10;10.60;;;;;;;;;;4984964;28;20233;-75
2021/10/30 14:10:53;;;;;;;11.63;9.47;;;;;;;;;;4974498;28;20233;-75
2021/10/30 14:13:58;;;;;;;10.77;9.60;;;;;;;;;;4973027;28;20198;-75
2021/10/30 14:17:02;;;;;;;10.00;9.00;;;;;;;;;;4974261;28;20225;-75
2021/10/30 14:20:07;;;;;;;11.20;9.80;;;;;;;;;;4984623;28;20210;-75
2021/10/30 14:23:11;;;;;;;13.23;10.10;;;;;;;;;;4984932;28;20196;-75
2021/10/30 14:26:16;;;;;;;13.30;10.23;;;;;;;;;;4974484;28;20656;-75
2021/10/30 14:29:21;;;;;;;15.47;11.40;;;;;;;;;;4984925;28;20649;-75
2021/10/30 14:32:25;;;;;;;13.67;11.63;;;;;;;;;;4974159;28;20233;-75
2021/10/30 14:35:30;;;;;;;13.87;12.10;;;;;;;;;;4973652;28;20657;-75
2021/10/30 14:38:34;;;;;;;15.67;12.13;;;;;;;;;;4963308;28;20201;-75
2021/10/30 14:41:38;;;;;;;22.00;16.73;;;;;;;;;;4989722;28;20233;-75
2021/10/30 14:44:45;;;;;;;20.40;13.50;;;;;;;;;;5004422;28;20189;-75
2021/10/30 14:47:49;;;;;;;21.10;16.33;;;;;;;;;;4993049;28;20210;-75
2021/10/30 14:50:53;;;;;;;21.03;15.50;;;;;;;;;;4992941;28;20229;-76
2021/10/30 14:53:57;;;;;;;20.83;16.13;;;;;;;;;;4954741;29;20196;-75
2021/10/30 14:57:01;;;;;;;19.70;15.37;;;;;;;;;;4952429;29;20192;-75
2021/10/30 15:00:08;;;;;;;27.00;19.70;;;;;;;;;;4958817;28;20195;-75
2021/10/30 15:03:12;;;;;;;33.07;23.23;;;;;;;;;;4980581;28;20199;-75
2021/10/30 15:06:17;;;;;;;27.00;19.13;;;;;;;;;;4945915;28;20206;-75
2021/10/30 15:09:22;;;;;;;32.37;23.97;;;;;;;;;;4971838;28;20210;-75
2021/10/30 15:12:26;;;;;;;28.73;20.23;;;;;;;;;;4986081;28;20234;-75
2021/10/30 15:15:31;;;;;;;19.17;16.00;;;;;;;;;;4991327;28;20209;-75
2021/10/30 15:18:38;;;;;;;19.27;15.40;;;;;;;;;;4988360;28;20194;-74
2021/10/30 15:21:43;;;;;;;28.90;21.23;;;;;;;;;;4989884;28;20720;-74
2021/10/30 15:24:47;;;;;;;24.27;16.70;;;;;;;;;;4992824;28;20197;-75
2021/10/30 15:27:51;;;;;;;17.87;15.57;;;;;;;;;;4994794;28;20216;-75
2021/10/30 15:30:57;;;;;;;18.10;15.63;;;;;;;;;;4967983;28;20237;-75
2021/10/30 15:34:04;;;;;;;20.70;16.10;;;;;;;;;;4994243;28;20186;-74
2021/10/30 15:37:08;;;;;;;19.27;16.23;;;;;;;;;;4955810;29;20228;-75
2021/10/30 15:40:12;;;;;;;23.47;16.50;;;;;;;;;;4943913;29;20551;-74
2021/10/30 15:43:17;;;;;;;21.00;15.83;;;;;;;;;;4954938;29;20180;-75
2021/10/30 15:46:24;;;;;;;20.20;15.47;;;;;;;;;;4955602;29;20198;-74
2021/10/30 15:49:30;;;;;;;20.27;15.53;;;;;;;;;;4954931;28;20187;-75
2021/10/30 15:52:34;;;;;;;18.47;15.17;;;;;;;;;;4955723;29;20234;-75
2021/10/30 15:55:38;;;;;;;19.30;15.87;;;;;;;;;;4954676;29;20200;-74
2021/10/30 15:58:44;;;;;;;19.30;16.33;;;;;;;;;;4955465;29;20191;-75
2021/10/30 16:01:48;;;;;;;21.20;16.93;;;;;;;;;;4969337;28;20605;-75
2021/10/30 16:04:52;;;;;;;19.70;15.47;;;;;;;;;;4975213;28;20202;-75
2021/10/30 16:07:57;;;;;;;20.97;15.93;;;;;;;;;;4974917;28;20225;-75
2021/10/30 16:11:02;;;;;;;19.27;15.70;;;;;;;;;;4986974;28;20234;-75
2021/10/30 16:14:06;;;;;;;21.97;15.60;;;;;;;;;;4976649;28;20215;-75
2021/10/30 16:17:10;;;;;;;21.83;16.63;;;;;;;;;;4974350;28;20238;-76
2021/10/30 16:20:40;;;;;;;22.27;18.03;;;;;;;;;;4989607;23;20198;31
2021/10/30 16:23:45;;;;;;;21.87;17.17;;;;;;;;;;4962394;28;20218;-86
2021/10/30 16:26:52;;;;;;;22.83;17.33;;;;;;;;;;4954260;28;20207;-86
2021/10/30 16:29:58;;;;;;;20.67;17.03;;;;;;;;;;4953459;28;20207;-87
2021/10/30 16:33:04;;;;;;;23.03;16.87;;;;;;;;;;4934258;29;20214;-87
2021/10/30 16:36:09;;;;;;;18.10;15.23;;;;;;;;;;4944910;28;20191;-87
2021/10/30 16:39:13;;;;;;;21.83;16.43;;;;;;;;;;4945401;29;20190;-86
2021/10/30 16:42:18;;;;;;;21.63;15.30;;;;;;;;;;4945475;29;20232;-86
2021/10/30 16:45:22;;;;;;;19.47;15.00;;;;;;;;;;4934644;29;20192;-86
2021/10/30 16:48:26;;;;;;;22.53;16.03;;;;;;;;;;4945231;29;20710;-87
2021/10/30 16:51:31;;;;;;;20.17;16.07;;;;;;;;;;4945220;29;20226;-86
2021/10/30 16:54:35;;;;;;;19.83;16.13;;;;;;;;;;4957051;29;20195;-86
2021/10/30 16:57:39;;;;;;;18.80;15.93;;;;;;;;;;4945536;29;20199;-86
2021/10/30 17:00:44;;;;;;;20.03;14.60;;;;;;;;;;4956704;29;20227;-87
2021/10/30 17:03:48;;;;;;;22.70;15.83;;;;;;;;;;4955946;29;20192;-87
2021/10/30 17:06:52;;;;;;;21.70;14.67;;;;;;;;;;4934355;29;20202;-86
2021/10/30 17:09:56;;;;;;;18.67;15.33;;;;;;;;;;4934231;29;20211;-86
2021/10/30 17:13:01;;;;;;;20.53;15.73;;;;;;;;;;4934404;29;20212;-86
2021/10/30 17:16:05;;;;;;;20.17;14.70;;;;;;;;;;4934285;29;20200;-86
2021/10/30 17:19:10;;;;;;;21.97;17.17;;;;;;;;;;4955856;29;20214;-86
2021/10/30 17:22:15;;;;;;;20.90;16.00;;;;;;;;;;4944662;29;20729;-86
2021/10/30 17:25:19;;;;;;;21.20;16.70;;;;;;;;;;4944568;29;20198;-86
2021/10/30 17:28:23;;;;;;;22.47;17.93;;;;;;;;;;4955353;29;20702;-86
2021/10/30 17:31:27;;;;;;;21.20;15.70;;;;;;;;;;4955639;29;20236;-86
2021/10/30 17:34:33;;;;;;;19.73;15.90;;;;;;;;;;4944261;29;20184;-86
2021/10/30 17:37:41;;;;;;;23.43;18.13;;;;;;;;;;4955845;29;20187;-87
2021/10/30 17:40:45;;;;;;;20.10;15.50;;;;;;;;;;4954959;29;20223;-87
2021/10/30 17:43:49;;;;;;;20.13;15.57;;;;;;;;;;4933659;29;20570;-87
2021/10/30 17:46:53;;;;;;;32.30;21.50;;;;;;;;;;4955570;28;20191;-86
2021/10/30 17:49:57;;;;;;;25.60;18.47;;;;;;;;;;4954956;29;20183;-86
2021/10/30 17:53:02;;;;;;;22.83;17.50;;;;;;;;;;4934024;29;20207;-86
2021/10/30 17:56:07;;;;;;;21.00;16.83;;;;;;;;;;4933190;29;20203;-86
2021/10/30 17:59:14;;;;;;;21.57;16.33;;;;;;;;;;4944541;29;20180;-87
2021/10/30 18:02:18;;;;;;;19.83;15.50;;;;;;;;;;4933358;29;20709;-87
2021/10/30 18:05:31;;;;;;;18.20;14.97;;;;;;;;;;4954842;29;20210;-86